Wetterdaten: Woche 15.06.15 - 21.06.15 (KW25)
Datum Zeit Temp. Aussen +5cm Feuchte Auss BlattFeu 1 Luftdruck Regen Sonnenschein Regendauer Solar Windben
15.06.2015 00:00 16,6 C 15,1 C 82 % 0 lf 1012,7 hPa 0,0 l/m 0,00 h 0,00 h 0 W/m 11,1 km/h (2 Bft)
15.06.2015 01:00 16,2 C 15,0 C 84 % 0 lf 1013,1 hPa 0,0 l/m 0,00 h 0,00 h 0 W/m 16,7 km/h (3 Bft)
15.06.2015 02:00 15,6 C 14,2 C 82 % 0 lf 1013,5 hPa 0,0 l/m 0,00 h 0,00 h 0 W/m 19,2 km/h (3 Bft)
15.06.2015 03:00 14,7 C 13,5 C 84 % 0 lf 1013,9 hPa 0,0 l/m 0,00 h 0,00 h 0 W/m 19,0 km/h (3 Bft)
15.06.2015 04:00 14,4 C 13,3 C 83 % 0 lf 1014,4 hPa 0,0 l/m 0,00 h 0,00 h 0 W/m 18,7 km/h (3 Bft)
15.06.2015 05:00 14,2 C 13,2 C 81 % 0 lf 1015,0 hPa 0,0 l/m 0,00 h 0,00 h 5 W/m 17,4 km/h (3 Bft)
15.06.2015 06:00 13,8 C 12,5 C 83 % 0 lf 1015,8 hPa 0,0 l/m 0,00 h 0,00 h 11 W/m 20,3 km/h (4 Bft)
15.06.2015 07:00 12,5 C 11,7 C 90 % 2 lf 1016,7 hPa 0,0 l/m 0,00 h 0,00 h 28 W/m 20,3 km/h (4 Bft)
15.06.2015 08:00 12,5 C 12,0 C 87 % 0 lf 1017,4 hPa 0,0 l/m 0,00 h 0,00 h 68 W/m 19,4 km/h (3 Bft)
15.06.2015 09:00 13,1 C 12,8 C 81 % 0 lf 1017,8 hPa 0,0 l/m 0,00 h 0,00 h 119 W/m 19,2 km/h (3 Bft)
15.06.2015 10:00 14,2 C 14,4 C 75 % 0 lf 1018,3 hPa 0,0 l/m 0,40 h 0,00 h 343 W/m 23,0 km/h (4 Bft)
15.06.2015 11:00 16,8 C 19,0 C 67 % 0 lf 1018,6 hPa 0,0 l/m 0,93 h 0,00 h 782 W/m 23,0 km/h (4 Bft)
15.06.2015 12:00 18,4 C 20,6 C 62 % 0 lf 1019,0 hPa 0,0 l/m 0,68 h 0,00 h 737 W/m 22,2 km/h (4 Bft)
15.06.2015 13:00 19,7 C 19,9 C 58 % 0 lf 1019,2 hPa 0,0 l/m 0,90 h 0,00 h 828 W/m 20,3 km/h (4 Bft)
15.06.2015 14:00 20,3 C 19,8 C 54 % 0 lf 1019,1 hPa 0,0 l/m 0,80 h 0,00 h 754 W/m 20,7 km/h (4 Bft)
15.06.2015 15:00 21,0 C 20,4 C 50 % 0 lf 1018,9 hPa 0,0 l/m 0,97 h 0,00 h 829 W/m 20,7 km/h (4 Bft)
15.06.2015 16:00 21,4 C 22,5 C 48 % 0 lf 1018,9 hPa 0,0 l/m 1,00 h 0,00 h 720 W/m 19,7 km/h (3 Bft)
15.06.2015 17:00 21,0 C 19,6 C 48 % 0 lf 1018,9 hPa 0,0 l/m 1,00 h 0,00 h 586 W/m 19,4 km/h (3 Bft)
15.06.2015 18:00 19,9 C 18,3 C 49 % 0 lf 1019,1 hPa 0,0 l/m 0,98 h 0,00 h 418 W/m 23,3 km/h (4 Bft)
15.06.2015 19:00 19,1 C 17,6 C 49 % 0 lf 1019,3 hPa 0,0 l/m 1,00 h 0,00 h 245 W/m 22,5 km/h (4 Bft)
15.06.2015 20:00 18,2 C 16,7 C 49 % 0 lf 1019,6 hPa 0,0 l/m 1,00 h 0,00 h 112 W/m 20,1 km/h (4 Bft)
15.06.2015 21:00 17,1 C 15,3 C 51 % 0 lf 1020,0 hPa 0,0 l/m 0,50 h 0,00 h 22 W/m 15,5 km/h (3 Bft)
15.06.2015 22:00 15,6 C 13,7 C 56 % 0 lf 1020,9 hPa 0,0 l/m 0,00 h 0,00 h 0 W/m 11,6 km/h (2 Bft)
15.06.2015 23:00 14,1 C 12,6 C 64 % 0 lf 1021,5 hPa 0,0 l/m 0,00 h 0,00 h 0 W/m 16,7 km/h (3 Bft)
16.06.2015 00:00 12,8 C 11,5 C 68 % 0 lf 1022,0 hPa 0,0 l/m 0,00 h 0,00 h 0 W/m 14,6 km/h (3 Bft)
16.06.2015 01:00 11,6 C 10,4 C 71 % 0 lf 1022,4 hPa 0,0 l/m 0,00 h 0,00 h 0 W/m 12,0 km/h (2 Bft)
16.06.2015 02:00 10,6 C 9,3 C 73 % 0 lf 1022,7 hPa 0,0 l/m 0,00 h 0,00 h 0 W/m 9,0 km/h (2 Bft)
16.06.2015 03:00 9,7 C 8,6 C 76 % 0 lf 1022,9 hPa 0,0 l/m 0,00 h 0,00 h 0 W/m 10,3 km/h (2 Bft)
16.06.2015 04:00 9,0 C 7,7 C 78 % 0 lf 1023,0 hPa 0,0 l/m 0,00 h 0,00 h 0 W/m 7,6 km/h (2 Bft)
16.06.2015 05:00 8,3 C 7,0 C 80 % 0 lf 1023,2 hPa 0,0 l/m 0,00 h 0,00 h 15 W/m 5,5 km/h (1 Bft)
16.06.2015 06:00 8,1 C 7,7 C 83 % 0 lf 1023,3 hPa 0,0 l/m 0,95 h 0,00 h 107 W/m 7,3 km/h (2 Bft)
16.06.2015 07:00 9,3 C 9,2 C 82 % 0 lf 1023,4 hPa 0,0 l/m 1,00 h 0,00 h 273 W/m 12,3 km/h (3 Bft)
16.06.2015 08:00 11,4 C 11,1 C 77 % 0 lf 1023,4 hPa 0,0 l/m 0,97 h 0,00 h 345 W/m 13,9 km/h (3 Bft)
16.06.2015 09:00 13,5 C 13,1 C 69 % 0 lf 1023,7 hPa 0,0 l/m 1,00 h 0,00 h 452 W/m 16,6 km/h (3 Bft)
16.06.2015 10:00 14,3 C 14,6 C 65 % 0 lf 1024,0 hPa 0,0 l/m 1,00 h 0,00 h 478 W/m 21,6 km/h (4 Bft)
16.06.2015 11:00 14,7 C 14,6 C 61 % 0 lf 1024,2 hPa 0,0 l/m 0,37 h 0,00 h 388 W/m 20,3 km/h (4 Bft)
16.06.2015 12:00 14,8 C 15,0 C 58 % 0 lf 1024,4 hPa 0,0 l/m 0,28 h 0,00 h 374 W/m 22,5 km/h (4 Bft)
16.06.2015 13:00 14,7 C 14,6 C 59 % 1 lf 1024,5 hPa 0,0 l/m 0,00 h 0,00 h 315 W/m 20,3 km/h (4 Bft)
16.06.2015 14:00 15,7 C 16,0 C 58 % 0 lf 1024,3 hPa 0,0 l/m 0,53 h 0,00 h 450 W/m 21,0 km/h (4 Bft)
16.06.2015 15:00 17,8 C 18,1 C 54 % 0 lf 1023,9 hPa 0,0 l/m 1,00 h 0,00 h 662 W/m 19,7 km/h (3 Bft)
16.06.2015 16:00 17,6 C 17,8 C 54 % 0 lf 1023,6 hPa 0,0 l/m 0,57 h 0,00 h 432 W/m 20,1 km/h (4 Bft)
16.06.2015 17:00 16,8 C 15,8 C 56 % 0 lf 1023,6 hPa 0,0 l/m 0,07 h 0,00 h 161 W/m 20,5 km/h (4 Bft)
16.06.2015 18:00 16,5 C 15,9 C 58 % 0 lf 1023,6 hPa 0,0 l/m 0,17 h 0,00 h 235 W/m 20,9 km/h (4 Bft)
16.06.2015 19:00 15,8 C 14,7 C 61 % 0 lf 1024,0 hPa 0,0 l/m 0,00 h 0,00 h 87 W/m 22,1 km/h (4 Bft)
16.06.2015 20:00 15,0 C 14,0 C 63 % 0 lf 1024,3 hPa 0,0 l/m 0,00 h 0,00 h 40 W/m 18,3 km/h (3 Bft)
16.06.2015 21:00 14,4 C 13,2 C 64 % 0 lf 1024,5 hPa 0,0 l/m 0,00 h 0,00 h 16 W/m 14,1 km/h (3 Bft)
16.06.2015 22:00 13,7 C 12,0 C 66 % 0 lf 1024,8 hPa 0,0 l/m 0,00 h 0,00 h 0 W/m 8,5 km/h (2 Bft)
16.06.2015 23:00 12,3 C 9,2 C 70 % 0 lf 1025,0 hPa 0,0 l/m 0,00 h 0,00 h 0 W/m 2,3 km/h (1 Bft)
17.06.2015 00:00 10,6 C 8,0 C 76 % 0 lf 1025,3 hPa 0,0 l/m 0,00 h 0,00 h 0 W/m 2,2 km/h (1 Bft)
17.06.2015 01:00 9,3 C 7,1 C 80 % 1 lf 1025,3 hPa 0,0 l/m 0,00 h 0,00 h 0 W/m 0,8 km/h (0 Bft)
17.06.2015 02:00 8,3 C 6,5 C 82 % 2 lf 1025,4 hPa 0,0 l/m 0,00 h 0,00 h 0 W/m 2,2 km/h (1 Bft)
17.06.2015 03:00 7,6 C 5,9 C 84 % 5 lf 1025,5 hPa 0,0 l/m 0,00 h 0,00 h 0 W/m 1,2 km/h (1 Bft)
17.06.2015 04:00 6,9 C 5,6 C 86 % 12 lf 1025,3 hPa 0,0 l/m 0,00 h 0,00 h 0 W/m 1,5 km/h (1 Bft)
17.06.2015 05:00 6,5 C 5,0 C 88 % 15 lf 1025,4 hPa 0,0 l/m 0,30 h 0,00 h 17 W/m 1,8 km/h (1 Bft)
17.06.2015 06:00 6,8 C 5,8 C 91 % 15 lf 1025,4 hPa 0,0 l/m 0,88 h 0,00 h 105 W/m 1,1 km/h (1 Bft)
17.06.2015 07:00 9,7 C 8,2 C 91 % 2 lf 1025,4 hPa 0,0 l/m 1,00 h 0,00 h 275 W/m 5,0 km/h (1 Bft)
17.06.2015 08:00 13,3 C 11,6 C 76 % 0 lf 1025,3 hPa 0,0 l/m 0,98 h 0,00 h 432 W/m 11,6 km/h (2 Bft)
17.06.2015 09:00 16,3 C 14,2 C 66 % 0 lf 1025,0 hPa 0,0 l/m 1,00 h 0,00 h 587 W/m 12,2 km/h (2 Bft)
17.06.2015 10:00 18,0 C 20,2 C 59 % 0 lf 1024,3 hPa 0,0 l/m 1,00 h 0,00 h 682 W/m 13,5 km/h (3 Bft)
17.06.2015 11:00 19,2 C 23,6 C 55 % 0 lf 1024,0 hPa 0,0 l/m 1,00 h 0,00 h 800 W/m 13,5 km/h (3 Bft)
17.06.2015 12:00 20,4 C 24,0 C 53 % 0 lf 1023,8 hPa 0,0 l/m 0,95 h 0,00 h 782 W/m 13,7 km/h (3 Bft)
17.06.2015 13:00 21,6 C 22,7 C 51 % 0 lf 1023,0 hPa 0,0 l/m 1,00 h 0,00 h 794 W/m 14,4 km/h (3 Bft)
17.06.2015 14:00 22,9 C 22,2 C 48 % 0 lf 1022,1 hPa 0,0 l/m 0,97 h 0,00 h 657 W/m 17,9 km/h (3 Bft)
17.06.2015 15:00 23,4 C 22,5 C 48 % 0 lf 1021,4 hPa 0,0 l/m 0,93 h 0,00 h 697 W/m 16,8 km/h (3 Bft)
17.06.2015 16:00 24,3 C 23,8 C 47 % 0 lf 1020,8 hPa 0,0 l/m 0,97 h 0,00 h 601 W/m 18,9 km/h (3 Bft)
17.06.2015 17:00 23,4 C 22,1 C 51 % 0 lf 1019,9 hPa 0,0 l/m 0,83 h 0,00 h 338 W/m 18,3 km/h (3 Bft)
17.06.2015 18:00 22,9 C 21,4 C 54 % 0 lf 1019,2 hPa 0,0 l/m 0,67 h 0,00 h 273 W/m 18,7 km/h (3 Bft)
17.06.2015 19:00 22,5 C 20,9 C 57 % 0 lf 1018,5 hPa 0,0 l/m 0,30 h 0,00 h 147 W/m 16,6 km/h (3 Bft)
17.06.2015 20:00 21,8 C 18,9 C 60 % 0 lf 1018,0 hPa 0,0 l/m 0,00 h 0,00 h 54 W/m 14,2 km/h (3 Bft)
17.06.2015 21:00 21,1 C 16,7 C 64 % 0 lf 1017,6 hPa 0,0 l/m 0,00 h 0,00 h 10 W/m 12,2 km/h (2 Bft)
17.06.2015 22:00 20,6 C 17,4 C 67 % 0 lf 1017,6 hPa 0,0 l/m 0,00 h 0,00 h 0 W/m 11,5 km/h (2 Bft)
17.06.2015 23:00 20,2 C 17,8 C 71 % 0 lf 1017,1 hPa 0,0 l/m 0,00 h 0,00 h 0 W/m 13,8 km/h (3 Bft)
18.06.2015 00:00 19,9 C 17,5 C 74 % 0 lf 1016,6 hPa 0,0 l/m 0,00 h 0,03 h 0 W/m 7,8 km/h (2 Bft)
18.06.2015 01:00 19,3 C 16,5 C 80 % 7 lf 1016,2 hPa 0,0 l/m 0,00 h 0,50 h 0 W/m 17,4 km/h (3 Bft)
18.06.2015 02:00 18,0 C 15,1 C 89 % 15 lf 1016,0 hPa 1,4 l/m 0,00 h 0,70 h 0 W/m 12,7 km/h (3 Bft)
18.06.2015 03:00 17,1 C 15,0 C 93 % 15 lf 1015,4 hPa 0,6 l/m 0,00 h 0,67 h 0 W/m 13,6 km/h (3 Bft)
18.06.2015 04:00 16,6 C 15,0 C 95 % 15 lf 1015,0 hPa 1,2 l/m 0,00 h 0,90 h 0 W/m 14,5 km/h (3 Bft)
18.06.2015 05:00 16,4 C 15,0 C 96 % 15 lf 1014,7 hPa 0,2 l/m 0,00 h 0,37 h 4 W/m 14,0 km/h (3 Bft)
18.06.2015 06:00 16,2 C 14,7 C 97 % 15 lf 1015,0 hPa 0,2 l/m 0,00 h 0,37 h 23 W/m 14,5 km/h (3 Bft)
18.06.2015 07:00 16,0 C 14,7 C 97 % 15 lf 1015,1 hPa 0,0 l/m 0,07 h 0,23 h 83 W/m 14,8 km/h (3 Bft)
18.06.2015 08:00 16,4 C 15,1 C 97 % 10 lf 1015,3 hPa 0,0 l/m 0,23 h 0,00 h 214 W/m 16,0 km/h (3 Bft)
18.06.2015 09:00 17,2 C 15,2 C 93 % 0 lf 1015,8 hPa 0,0 l/m 0,33 h 0,00 h 301 W/m 18,3 km/h (3 Bft)
18.06.2015 10:00 18,4 C 16,6 C 78 % 0 lf 1015,8 hPa 0,0 l/m 0,50 h 0,00 h 486 W/m 25,2 km/h (4 Bft)
18.06.2015 11:00 20,3 C 21,1 C 65 % 0 lf 1015,9 hPa 0,0 l/m 0,53 h 0,00 h 555 W/m 27,1 km/h (4 Bft)
18.06.2015 12:00 21,3 C 23,4 C 60 % 0 lf 1015,9 hPa 0,0 l/m 0,88 h 0,00 h 820 W/m 26,9 km/h (4 Bft)
18.06.2015 13:00 22,3 C 22,3 C 55 % 0 lf 1015,9 hPa 0,0 l/m 0,77 h 0,00 h 751 W/m 28,4 km/h (4 Bft)
18.06.2015 14:00 21,7 C 20,5 C 55 % 0 lf 1015,8 hPa 0,0 l/m 0,37 h 0,00 h 496 W/m 27,8 km/h (4 Bft)
18.06.2015 15:00 21,4 C 20,6 C 55 % 0 lf 1016,0 hPa 0,0 l/m 0,77 h 0,00 h 616 W/m 27,7 km/h (4 Bft)
18.06.2015 16:00 20,0 C 19,1 C 56 % 0 lf 1016,2 hPa 0,0 l/m 0,73 h 0,00 h 424 W/m 27,5 km/h (4 Bft)
18.06.2015 17:00 18,5 C 17,7 C 58 % 0 lf 1016,6 hPa 0,0 l/m 0,57 h 0,00 h 282 W/m 25,9 km/h (4 Bft)
18.06.2015 18:00 17,5 C 16,5 C 60 % 0 lf 1016,7 hPa 0,0 l/m 0,40 h 0,00 h 207 W/m 25,0 km/h (4 Bft)
18.06.2015 19:00 16,5 C 15,3 C 62 % 0 lf 1016,9 hPa 0,0 l/m 0,20 h 0,00 h 142 W/m 24,5 km/h (4 Bft)
18.06.2015 20:00 15,5 C 14,2 C 64 % 0 lf 1017,0 hPa 0,0 l/m 0,30 h 0,00 h 77 W/m 20,5 km/h (4 Bft)
18.06.2015 21:00 14,5 C 13,1 C 68 % 0 lf 1017,3 hPa 0,0 l/m 0,20 h 0,00 h 20 W/m 15,7 km/h (3 Bft)
18.06.2015 22:00 13,5 C 11,8 C 70 % 0 lf 1017,6 hPa 0,0 l/m 0,00 h 0,00 h 0 W/m 11,5 km/h (2 Bft)
18.06.2015 23:00 12,6 C 11,4 C 74 % 0 lf 1017,7 hPa 0,0 l/m 0,00 h 0,00 h 0 W/m 10,4 km/h (2 Bft)
19.06.2015 00:00 12,2 C 11,1 C 77 % 0 lf 1017,5 hPa 0,0 l/m 0,00 h 0,00 h 0 W/m 8,0 km/h (2 Bft)
19.06.2015 01:00 12,1 C 11,2 C 77 % 0 lf 1017,5 hPa 0,0 l/m 0,00 h 0,00 h 0 W/m 11,2 km/h (2 Bft)
19.06.2015 02:00 12,2 C 11,1 C 78 % 0 lf 1017,5 hPa 0,0 l/m 0,00 h 0,00 h 0 W/m 12,2 km/h (2 Bft)
19.06.2015 03:00 12,0 C 11,1 C 78 % 0 lf 1017,4 hPa 0,0 l/m 0,00 h 0,00 h 0 W/m 10,5 km/h (2 Bft)
19.06.2015 04:00 11,9 C 11,1 C 79 % 0 lf 1017,3 hPa 0,0 l/m 0,00 h 0,00 h 0 W/m 10,8 km/h (2 Bft)
19.06.2015 05:00 11,8 C 11,1 C 80 % 0 lf 1017,3 hPa 0,0 l/m 0,00 h 0,00 h 5 W/m 11,4 km/h (2 Bft)
19.06.2015 06:00 11,8 C 11,0 C 83 % 0 lf 1017,4 hPa 0,0 l/m 0,00 h 0,07 h 16 W/m 14,6 km/h (3 Bft)
19.06.2015 07:00 11,8 C 11,1 C 86 % 0 lf 1017,6 hPa 0,0 l/m 0,00 h 0,03 h 40 W/m 14,3 km/h (3 Bft)
19.06.2015 08:00 11,9 C 10,9 C 90 % 7 lf 1017,9 hPa 0,2 l/m 0,00 h 0,43 h 90 W/m 14,9 km/h (3 Bft)
19.06.2015 09:00 12,1 C 11,0 C 93 % 15 lf 1017,8 hPa 0,0 l/m 0,00 h 0,20 h 122 W/m 13,7 km/h (3 Bft)
19.06.2015 10:00 12,7 C 11,8 C 92 % 5 lf 1017,8 hPa 0,0 l/m 0,03 h 0,00 h 205 W/m 16,2 km/h (3 Bft)
19.06.2015 11:00 14,7 C 14,9 C 85 % 0 lf 1017,6 hPa 0,0 l/m 0,30 h 0,00 h 403 W/m 19,8 km/h (3 Bft)
19.06.2015 12:00 15,0 C 13,0 C 81 % 10 lf 1017,8 hPa 0,4 l/m 0,00 h 0,43 h 160 W/m 17,0 km/h (3 Bft)
19.06.2015 13:00 14,1 C 12,3 C 89 % 15 lf 1017,9 hPa 1,2 l/m 0,00 h 0,50 h 159 W/m 12,6 km/h (3 Bft)
19.06.2015 14:00 14,6 C 12,6 C 88 % 11 lf 1017,8 hPa 1,4 l/m 0,30 h 0,33 h 273 W/m 15,7 km/h (3 Bft)
19.06.2015 15:00 13,3 C 11,2 C 89 % 15 lf 1018,0 hPa 0,0 l/m 0,00 h 0,47 h 61 W/m 8,7 km/h (2 Bft)
19.06.2015 16:00 12,8 C 11,5 C 92 % 15 lf 1017,9 hPa 1,0 l/m 0,00 h 0,37 h 118 W/m 9,6 km/h (2 Bft)
19.06.2015 17:00 13,1 C 11,3 C 93 % 15 lf 1018,0 hPa 0,0 l/m 0,00 h 0,13 h 85 W/m 8,2 km/h (2 Bft)
19.06.2015 18:00 13,2 C 11,7 C 92 % 15 lf 1018,0 hPa 0,0 l/m 0,00 h 0,07 h 109 W/m 9,8 km/h (2 Bft)
19.06.2015 19:00 12,7 C 10,6 C 89 % 15 lf 1018,3 hPa 0,0 l/m 0,00 h 0,23 h 37 W/m 8,6 km/h (2 Bft)
19.06.2015 20:00 12,3 C 10,6 C 91 % 15 lf 1018,5 hPa 1,6 l/m 0,00 h 0,67 h 14 W/m 10,3 km/h (2 Bft)
19.06.2015 21:00 11,8 C 10,3 C 93 % 15 lf 1018,6 hPa 0,0 l/m 0,00 h 0,03 h 8 W/m 4,7 km/h (1 Bft)
19.06.2015 22:00 11,6 C 10,3 C 94 % 15 lf 1018,8 hPa 0,0 l/m 0,00 h 0,03 h 0 W/m 4,1 km/h (1 Bft)
19.06.2015 23:00 11,5 C 10,3 C 95 % 15 lf 1018,8 hPa 0,2 l/m 0,00 h 0,43 h 0 W/m 8,5 km/h (2 Bft)
20.06.2015 00:00 11,2 C 9,8 C 95 % 15 lf 1018,8 hPa 0,0 l/m 0,00 h 0,07 h 0 W/m 8,7 km/h (2 Bft)
20.06.2015 01:00 10,8 C 9,5 C 95 % 15 lf 1018,8 hPa 0,2 l/m 0,00 h 0,37 h 0 W/m 5,2 km/h (1 Bft)
20.06.2015 02:00 10,8 C 9,7 C 96 % 15 lf 1018,8 hPa 1,6 l/m 0,00 h 0,40 h 0 W/m 6,2 km/h (2 Bft)
20.06.2015 03:00 10,6 C 9,4 C 96 % 15 lf 1018,8 hPa 0,0 l/m 0,00 h 0,30 h 0 W/m 8,8 km/h (2 Bft)
20.06.2015 04:00 10,0 C 8,9 C 96 % 15 lf 1018,8 hPa 0,0 l/m 0,00 h 0,17 h 0 W/m 7,8 km/h (2 Bft)
20.06.2015 05:00 10,0 C 9,2 C 96 % 15 lf 1018,9 hPa 0,0 l/m 0,00 h 0,00 h 6 W/m 7,1 km/h (2 Bft)
20.06.2015 06:00 10,3 C 9,4 C 97 % 15 lf 1019,0 hPa 0,0 l/m 0,00 h 0,00 h 34 W/m 9,5 km/h (2 Bft)
20.06.2015 07:00 10,7 C 9,9 C 97 % 15 lf 1019,4 hPa 0,0 l/m 0,00 h 0,00 h 85 W/m 9,5 km/h (2 Bft)
20.06.2015 08:00 11,3 C 10,3 C 97 % 9 lf 1019,7 hPa 0,0 l/m 0,80 h 0,00 h 398 W/m 13,5 km/h (3 Bft)
20.06.2015 09:00 12,6 C 10,6 C 91 % 0 lf 1020,0 hPa 0,0 l/m 0,17 h 0,00 h 260 W/m 12,8 km/h (3 Bft)
20.06.2015 10:00 13,2 C 11,2 C 83 % 0 lf 1020,2 hPa 0,0 l/m 0,00 h 0,00 h 208 W/m 11,5 km/h (2 Bft)
20.06.2015 11:00 13,3 C 11,5 C 82 % 0 lf 1020,5 hPa 0,0 l/m 0,00 h 0,00 h 196 W/m 12,1 km/h (2 Bft)
20.06.2015 12:00 13,9 C 13,8 C 80 % 0 lf 1020,5 hPa 0,0 l/m 0,37 h 0,03 h 332 W/m 8,7 km/h (2 Bft)
20.06.2015 13:00 15,7 C 15,5 C 71 % 0 lf 1020,5 hPa 0,0 l/m 0,30 h 0,00 h 402 W/m 12,3 km/h (3 Bft)
20.06.2015 14:00 16,1 C 15,1 C 66 % 0 lf 1020,4 hPa 0,0 l/m 0,10 h 0,00 h 231 W/m 13,0 km/h (3 Bft)
20.06.2015 15:00 15,7 C 14,7 C 68 % 0 lf 1020,3 hPa 0,0 l/m 0,00 h 0,00 h 202 W/m 13,3 km/h (3 Bft)
20.06.2015 16:00 16,0 C 14,9 C 67 % 0 lf 1020,4 hPa 0,0 l/m 0,00 h 0,00 h 204 W/m 13,0 km/h (3 Bft)
20.06.2015 17:00 16,0 C 15,1 C 69 % 0 lf 1020,2 hPa 0,0 l/m 0,27 h 0,00 h 232 W/m 10,2 km/h (2 Bft)
20.06.2015 18:00 16,2 C 14,7 C 68 % 0 lf 1020,0 hPa 0,0 l/m 0,00 h 0,00 h 128 W/m 8,6 km/h (2 Bft)
20.06.2015 19:00 15,8 C 14,4 C 69 % 0 lf 1019,9 hPa 0,0 l/m 0,00 h 0,00 h 112 W/m 6,4 km/h (2 Bft)
20.06.2015 20:00 15,5 C 13,4 C 70 % 0 lf 1019,6 hPa 0,0 l/m 0,00 h 0,00 h 31 W/m 3,1 km/h (1 Bft)
20.06.2015 21:00 14,9 C 12,5 C 74 % 0 lf 1019,6 hPa 0,0 l/m 0,00 h 0,00 h 7 W/m 1,2 km/h (1 Bft)
20.06.2015 22:00 14,2 C 11,9 C 78 % 0 lf 1019,6 hPa 0,0 l/m 0,00 h 0,17 h 0 W/m 3,0 km/h (1 Bft)
20.06.2015 23:00 13,6 C 10,7 C 83 % 14 lf 1019,4 hPa 0,2 l/m 0,00 h 0,90 h 0 W/m 4,1 km/h (1 Bft)
21.06.2015 00:00 12,9 C 10,5 C 87 % 9 lf 1019,2 hPa 0,0 l/m 0,00 h 0,03 h 0 W/m 5,2 km/h (1 Bft)
21.06.2015 01:00 12,3 C 10,3 C 88 % 0 lf 1018,8 hPa 0,0 l/m 0,00 h 0,00 h 0 W/m 6,6 km/h (2 Bft)
21.06.2015 02:00 12,1 C 10,6 C 89 % 0 lf 1018,0 hPa 0,0 l/m 0,00 h 0,00 h 0 W/m 7,5 km/h (2 Bft)
21.06.2015 03:00 11,9 C 10,6 C 90 % 0 lf 1017,6 hPa 0,0 l/m 0,00 h 0,33 h 0 W/m 7,6 km/h (2 Bft)
21.06.2015 04:00 11,9 C 10,0 C 92 % 13 lf 1017,0 hPa 0,4 l/m 0,00 h 0,60 h 0 W/m 6,7 km/h (2 Bft)
21.06.2015 05:00 11,7 C 10,4 C 94 % 14 lf 1016,7 hPa 0,0 l/m 0,00 h 0,00 h 6 W/m 4,8 km/h (1 Bft)
21.06.2015 06:00 11,9 C 10,8 C 95 % 3 lf 1016,6 hPa 0,0 l/m 0,00 h 0,00 h 20 W/m 4,9 km/h (1 Bft)
21.06.2015 07:00 12,4 C 11,5 C 96 % 1 lf 1016,5 hPa 0,0 l/m 0,00 h 0,00 h 65 W/m 5,7 km/h (1 Bft)
21.06.2015 08:00 13,7 C 12,9 C 96 % 0 lf 1016,1 hPa 0,0 l/m 0,30 h 0,00 h 189 W/m 9,4 km/h (2 Bft)
21.06.2015 09:00 15,3 C 14,5 C 93 % 0 lf 1015,7 hPa 0,0 l/m 0,60 h 0,00 h 283 W/m 13,4 km/h (3 Bft)
21.06.2015 10:00 17,1 C 16,5 C 84 % 0 lf 1015,4 hPa 0,0 l/m 0,30 h 0,00 h 294 W/m 14,5 km/h (3 Bft)
21.06.2015 11:00 18,3 C 18,0 C 79 % 0 lf 1014,7 hPa 0,0 l/m 0,47 h 0,00 h 400 W/m 13,6 km/h (3 Bft)
21.06.2015 12:00 18,5 C 16,7 C 78 % 3 lf 1014,4 hPa 0,2 l/m 0,00 h 0,23 h 186 W/m 15,0 km/h (3 Bft)
21.06.2015 13:00 17,8 C 15,5 C 87 % 14 lf 1014,1 hPa 0,2 l/m 0,03 h 0,43 h 247 W/m 12,8 km/h (3 Bft)
21.06.2015 14:00 19,5 C 18,1 C 87 % 0 lf 1013,4 hPa 0,0 l/m 0,70 h 0,00 h 544 W/m 17,9 km/h (3 Bft)
21.06.2015 15:00 22,1 C 20,1 C 75 % 0 lf 1012,8 hPa 0,2 l/m 0,73 h 0,00 h 674 W/m 20,3 km/h (4 Bft)
21.06.2015 16:00 23,3 C 22,0 C 64 % 0 lf 1012,5 hPa 0,0 l/m 0,67 h 0,00 h 536 W/m 27,2 km/h (4 Bft)
21.06.2015 17:00 21,6 C 19,8 C 68 % 2 lf 1012,4 hPa 0,0 l/m 0,70 h 0,17 h 415 W/m 29,4 km/h (5 Bft)
21.06.2015 18:00 21,2 C 19,6 C 65 % 0 lf 1012,5 hPa 0,0 l/m 0,43 h 0,00 h 238 W/m 24,8 km/h (4 Bft)
21.06.2015 19:00 20,2 C 18,4 C 64 % 0 lf 1012,6 hPa 0,0 l/m 0,63 h 0,00 h 168 W/m 22,4 km/h (4 Bft)
21.06.2015 20:00 19,5 C 17,4 C 64 % 0 lf 1012,7 hPa 0,0 l/m 0,30 h 0,00 h 75 W/m 15,8 km/h (3 Bft)
21.06.2015 21:00 18,4 C 16,3 C 70 % 0 lf 1013,1 hPa 0,0 l/m 0,00 h 0,00 h 15 W/m 19,2 km/h (3 Bft)
21.06.2015 22:00 17,0 C 14,9 C 77 % 0 lf 1013,5 hPa 0,0 l/m 0,00 h 0,00 h 0 W/m 10,8 km/h (2 Bft)
21.06.2015 23:00 15,9 C 13,2 C 80 % 0 lf 1013,5 hPa 0,0 l/m 0,00 h 0,00 h 0 W/m 3,4 km/h (1 Bft)
Min-Datum _ 17.06.15 17.06.15 17.06.15 15.06.15 21.06.15 - - - - 16.06.15
_ Min-Zeit 06:05 05:00 14:28 00:00 17:56 - - - - 23:46
Minimum _ 6,2 C 5,0 C 46 % 0 lf 1012,3 hPa - - - - 0,0 km/h (0 Bft)
Max-Datum _ 17.06.15 18.06.15 18.06.15 17.06.15 17.06.15 20.06.15 15.06.15 18.06.15 21.06.15 18.06.15
_ Max-Zeit 16:16 12:18 08:10 04:36 03:02 02:04 10:36 00:56 14:22 13:06
Maximum _ 24,8 C 26,1 C 98 % 15 lf 1025,7 hPa 1,6 l/m 0,03 h 0,03 h 1222 W/m 41,8 km/h
W-NW (6 Bft)
Durchschnitt _ 15,2 C 14,1 C 75 % 3 lf 1018,9 hPa #12,6 l/m #46:12 h #12:30 h 282 W/m 14,0 km/h (3 Bft)
© 2015 W. Hausmann